Terminal Aerodrome Forecast
Issued by NWS

Home | Current Version | Previous Version | Text Only | Print | Product List | Glossary On
Versions: 1 2 3 4 5 6 7 8 9 10 11 12 13 14 15 16 17 18 19 20 21 22 23
766
FTUS45 KVEF 211126
TAFBIH
TAF
KBIH 211126Z 2112/2212 30003KT 2SM BR OVC005
      TEMPO 2112/2115 1/2SM FG
     FM211500 VRB06KT P6SM SCT100
     FM212200 21007KT P6SM SCT100 BKN200
     FM220500 17009KT P6SM VCSH SCT040 BKN060=

USA.gov is the U.S. government's official web portal to all federal, state and local government web resources and services.